sensor_id;sensor_type;location;lat;lon;timestamp;P1;durP1;ratioP1;P2;durP2;ratioP2
12110;SDS011;6119;52.372;8.990;2023-05-20T00:01:13;3.17;;;1.80;;
12110;SDS011;6119;52.372;8.990;2023-05-20T00:04:00;1.87;;;1.60;;
12110;SDS011;6119;52.372;8.990;2023-05-20T00:06:47;1.87;;;1.70;;
12110;SDS011;6119;52.372;8.990;2023-05-20T00:09:34;6.27;;;2.27;;
12110;SDS011;6119;52.372;8.990;2023-05-20T00:12:22;3.43;;;1.80;;
12110;SDS011;6119;52.372;8.990;2023-05-20T00:15:09;3.77;;;1.90;;
12110;SDS011;6119;52.372;8.990;2023-05-20T00:17:56;2.70;;;2.13;;
12110;SDS011;6119;52.372;8.990;2023-05-20T00:20:43;2.90;;;1.63;;
12110;SDS011;6119;52.372;8.990;2023-05-20T00:23:30;3.67;;;1.80;;
12110;SDS011;6119;52.372;8.990;2023-05-20T00:26:16;4.27;;;2.10;;
12110;SDS011;6119;52.372;8.990;2023-05-20T00:29:04;3.70;;;2.10;;
12110;SDS011;6119;52.372;8.990;2023-05-20T00:31:50;3.07;;;1.67;;
12110;SDS011;6119;52.372;8.990;2023-05-20T00:34:37;4.20;;;2.00;;
12110;SDS011;6119;52.372;8.990;2023-05-20T00:37:24;4.50;;;2.07;;
12110;SDS011;6119;52.372;8.990;2023-05-20T00:40:11;4.00;;;1.67;;
12110;SDS011;6119;52.372;8.990;2023-05-20T00:42:59;3.53;;;1.63;;
12110;SDS011;6119;52.372;8.990;2023-05-20T00:45:47;4.03;;;1.70;;
12110;SDS011;6119;52.372;8.990;2023-05-20T00:48:36;2.50;;;1.67;;
12110;SDS011;6119;52.372;8.990;2023-05-20T00:51:26;2.60;;;1.30;;
12110;SDS011;6119;52.372;8.990;2023-05-20T00:54:12;2.73;;;1.93;;
12110;SDS011;6119;52.372;8.990;2023-05-20T00:56:59;2.97;;;1.73;;
12110;SDS011;6119;52.372;8.990;2023-05-20T00:59:47;1.97;;;1.70;;
12110;SDS011;6119;52.372;8.990;2023-05-20T01:02:35;1.90;;;1.80;;
12110;SDS011;6119;52.372;8.990;2023-05-20T01:05:22;2.53;;;1.70;;
12110;SDS011;6119;52.372;8.990;2023-05-20T01:08:09;2.87;;;1.80;;
12110;SDS011;6119;52.372;8.990;2023-05-20T01:10:57;4.53;;;1.70;;
12110;SDS011;6119;52.372;8.990;2023-05-20T01:13:50;1.90;;;1.70;;
12110;SDS011;6119;52.372;8.990;2023-05-20T01:16:43;3.90;;;1.83;;
12110;SDS011;6119;52.372;8.990;2023-05-20T01:19:34;2.83;;;1.67;;
12110;SDS011;6119;52.372;8.990;2023-05-20T01:22:24;3.03;;;2.00;;
12110;SDS011;6119;52.372;8.990;2023-05-20T01:25:11;2.27;;;1.93;;
12110;SDS011;6119;52.372;8.990;2023-05-20T01:27:58;2.80;;;1.70;;
12110;SDS011;6119;52.372;8.990;2023-05-20T01:30:46;1.83;;;1.70;;
12110;SDS011;6119;52.372;8.990;2023-05-20T01:33:37;5.27;;;1.70;;
12110;SDS011;6119;52.372;8.990;2023-05-20T01:36:25;2.47;;;1.70;;
12110;SDS011;6119;52.372;8.990;2023-05-20T01:39:15;3.63;;;1.57;;
12110;SDS011;6119;52.372;8.990;2023-05-20T01:42:02;4.07;;;1.77;;
12110;SDS011;6119;52.372;8.990;2023-05-20T01:44:50;2.37;;;1.50;;
12110;SDS011;6119;52.372;8.990;2023-05-20T01:47:37;2.73;;;1.60;;
12110;SDS011;6119;52.372;8.990;2023-05-20T01:50:23;3.33;;;1.80;;
12110;SDS011;6119;52.372;8.990;2023-05-20T01:53:11;3.00;;;1.80;;
12110;SDS011;6119;52.372;8.990;2023-05-20T01:55:58;3.60;;;1.83;;
12110;SDS011;6119;52.372;8.990;2023-05-20T01:58:45;1.67;;;1.40;;
12110;SDS011;6119;52.372;8.990;2023-05-20T02:01:31;2.23;;;1.70;;
12110;SDS011;6119;52.372;8.990;2023-05-20T02:04:18;5.30;;;2.07;;
12110;SDS011;6119;52.372;8.990;2023-05-20T02:07:06;1.57;;;1.47;;
12110;SDS011;6119;52.372;8.990;2023-05-20T02:09:53;2.13;;;1.50;;
12110;SDS011;6119;52.372;8.990;2023-05-20T02:12:41;4.03;;;1.80;;
12110;SDS011;6119;52.372;8.990;2023-05-20T02:15:27;2.10;;;1.70;;
12110;SDS011;6119;52.372;8.990;2023-05-20T02:18:14;2.47;;;1.77;;
12110;SDS011;6119;52.372;8.990;2023-05-20T02:21:03;4.77;;;1.80;;
12110;SDS011;6119;52.372;8.990;2023-05-20T02:23:50;3.00;;;2.00;;
12110;SDS011;6119;52.372;8.990;2023-05-20T02:26:37;1.80;;;1.70;;
12110;SDS011;6119;52.372;8.990;2023-05-20T02:29:24;3.10;;;1.70;;
12110;SDS011;6119;52.372;8.990;2023-05-20T02:32:11;1.70;;;1.30;;
12110;SDS011;6119;52.372;8.990;2023-05-20T02:34:57;1.83;;;1.70;;
12110;SDS011;6119;52.372;8.990;2023-05-20T02:37:44;2.13;;;1.70;;
12110;SDS011;6119;52.372;8.990;2023-05-20T02:40:31;1.40;;;1.30;;
12110;SDS011;6119;52.372;8.990;2023-05-20T02:43:18;1.70;;;1.40;;
12110;SDS011;6119;52.372;8.990;2023-05-20T02:46:06;1.60;;;1.40;;
12110;SDS011;6119;52.372;8.990;2023-05-20T02:48:52;3.00;;;1.20;;
12110;SDS011;6119;52.372;8.990;2023-05-20T02:51:39;2.90;;;1.30;;
12110;SDS011;6119;52.372;8.990;2023-05-20T02:54:25;1.50;;;1.40;;
12110;SDS011;6119;52.372;8.990;2023-05-20T02:57:12;1.33;;;1.23;;
12110;SDS011;6119;52.372;8.990;2023-05-20T02:59:59;2.07;;;1.30;;
12110;SDS011;6119;52.372;8.990;2023-05-20T03:02:47;2.07;;;1.67;;
12110;SDS011;6119;52.372;8.990;2023-05-20T03:05:33;2.00;;;1.30;;
12110;SDS011;6119;52.372;8.990;2023-05-20T03:08:22;2.47;;;1.60;;
12110;SDS011;6119;52.372;8.990;2023-05-20T03:11:08;1.30;;;1.20;;
12110;SDS011;6119;52.372;8.990;2023-05-20T03:13:55;2.70;;;1.40;;
12110;SDS011;6119;52.372;8.990;2023-05-20T03:16:42;1.70;;;1.30;;
12110;SDS011;6119;52.372;8.990;2023-05-20T03:19:30;5.50;;;1.80;;
12110;SDS011;6119;52.372;8.990;2023-05-20T03:22:17;4.17;;;1.50;;
12110;SDS011;6119;52.372;8.990;2023-05-20T03:25:03;1.70;;;1.60;;
12110;SDS011;6119;52.372;8.990;2023-05-20T03:27:51;2.50;;;1.40;;
12110;SDS011;6119;52.372;8.990;2023-05-20T03:30:37;1.40;;;1.30;;
12110;SDS011;6119;52.372;8.990;2023-05-20T03:33:24;2.00;;;1.47;;
12110;SDS011;6119;52.372;8.990;2023-05-20T03:36:12;4.13;;;1.60;;
12110;SDS011;6119;52.372;8.990;2023-05-20T03:38:59;1.83;;;1.70;;
12110;SDS011;6119;52.372;8.990;2023-05-20T03:41:45;2.93;;;1.30;;
12110;SDS011;6119;52.372;8.990;2023-05-20T03:44:32;3.43;;;1.50;;
12110;SDS011;6119;52.372;8.990;2023-05-20T03:47:18;2.47;;;1.33;;
12110;SDS011;6119;52.372;8.990;2023-05-20T03:50:05;1.40;;;1.30;;
12110;SDS011;6119;52.372;8.990;2023-05-20T03:52:54;1.87;;;1.37;;
12110;SDS011;6119;52.372;8.990;2023-05-20T03:55:40;1.53;;;1.33;;
12110;SDS011;6119;52.372;8.990;2023-05-20T03:58:27;3.23;;;1.43;;
12110;SDS011;6119;52.372;8.990;2023-05-20T04:01:15;1.57;;;1.47;;
12110;SDS011;6119;52.372;8.990;2023-05-20T04:04:02;2.17;;;1.50;;
12110;SDS011;6119;52.372;8.990;2023-05-20T04:06:49;1.70;;;1.60;;
12110;SDS011;6119;52.372;8.990;2023-05-20T04:09:37;1.53;;;1.43;;
12110;SDS011;6119;52.372;8.990;2023-05-20T04:12:24;5.10;;;1.60;;
12110;SDS011;6119;52.372;8.990;2023-05-20T04:15:14;5.83;;;1.27;;
12110;SDS011;6119;52.372;8.990;2023-05-20T04:18:01;2.60;;;1.27;;
12110;SDS011;6119;52.372;8.990;2023-05-20T04:20:48;1.40;;;1.30;;
12110;SDS011;6119;52.372;8.990;2023-05-20T04:23:39;2.07;;;1.40;;
12110;SDS011;6119;52.372;8.990;2023-05-20T04:26:27;3.80;;;1.50;;
12110;SDS011;6119;52.372;8.990;2023-05-20T04:29:13;1.93;;;1.60;;
12110;SDS011;6119;52.372;8.990;2023-05-20T04:32:00;3.13;;;1.30;;
12110;SDS011;6119;52.372;8.990;2023-05-20T04:34:47;2.67;;;1.50;;
12110;SDS011;6119;52.372;8.990;2023-05-20T04:37:34;1.57;;;1.47;;
12110;SDS011;6119;52.372;8.990;2023-05-20T04:40:21;4.80;;;1.60;;
12110;SDS011;6119;52.372;8.990;2023-05-20T04:43:09;1.73;;;1.40;;
12110;SDS011;6119;52.372;8.990;2023-05-20T04:45:55;3.87;;;1.57;;
12110;SDS011;6119;52.372;8.990;2023-05-20T04:48:43;1.80;;;1.60;;
12110;SDS011;6119;52.372;8.990;2023-05-20T04:51:31;2.90;;;1.40;;
12110;SDS011;6119;52.372;8.990;2023-05-20T04:54:19;1.47;;;1.37;;
12110;SDS011;6119;52.372;8.990;2023-05-20T04:57:06;1.57;;;1.47;;
12110;SDS011;6119;52.372;8.990;2023-05-20T04:59:54;1.47;;;1.37;;
12110;SDS011;6119;52.372;8.990;2023-05-20T05:02:42;1.80;;;1.13;;
12110;SDS011;6119;52.372;8.990;2023-05-20T05:05:29;2.37;;;1.50;;
12110;SDS011;6119;52.372;8.990;2023-05-20T05:08:16;2.17;;;1.50;;
12110;SDS011;6119;52.372;8.990;2023-05-20T05:11:04;1.93;;;1.27;;
12110;SDS011;6119;52.372;8.990;2023-05-20T05:13:50;3.47;;;1.20;;
12110;SDS011;6119;52.372;8.990;2023-05-20T05:16:38;2.27;;;1.43;;
12110;SDS011;6119;52.372;8.990;2023-05-20T05:19:25;4.07;;;1.40;;
12110;SDS011;6119;52.372;8.990;2023-05-20T05:22:12;1.97;;;1.43;;
12110;SDS011;6119;52.372;8.990;2023-05-20T05:24:58;1.90;;;1.70;;
12110;SDS011;6119;52.372;8.990;2023-05-20T05:27:45;1.50;;;1.40;;
12110;SDS011;6119;52.372;8.990;2023-05-20T05:30:32;4.63;;;1.70;;
12110;SDS011;6119;52.372;8.990;2023-05-20T05:33:20;4.97;;;2.10;;
12110;SDS011;6119;52.372;8.990;2023-05-20T05:36:07;4.03;;;1.67;;
12110;SDS011;6119;52.372;8.990;2023-05-20T05:38:54;3.90;;;1.53;;
12110;SDS011;6119;52.372;8.990;2023-05-20T05:41:40;2.30;;;1.90;;
12110;SDS011;6119;52.372;8.990;2023-05-20T05:44:27;3.63;;;2.00;;
12110;SDS011;6119;52.372;8.990;2023-05-20T05:47:13;2.40;;;1.60;;
12110;SDS011;6119;52.372;8.990;2023-05-20T05:50:01;1.80;;;1.70;;
12110;SDS011;6119;52.372;8.990;2023-05-20T05:52:49;65.23;;;5.57;;
12110;SDS011;6119;52.372;8.990;2023-05-20T05:55:35;2.40;;;1.67;;
12110;SDS011;6119;52.372;8.990;2023-05-20T05:58:22;4.67;;;1.90;;
12110;SDS011;6119;52.372;8.990;2023-05-20T06:01:08;3.17;;;2.20;;
12110;SDS011;6119;52.372;8.990;2023-05-20T06:03:55;2.03;;;1.67;;
12110;SDS011;6119;52.372;8.990;2023-05-20T06:06:44;5.00;;;1.63;;
12110;SDS011;6119;52.372;8.990;2023-05-20T06:09:30;1.73;;;1.60;;
12110;SDS011;6119;52.372;8.990;2023-05-20T06:12:16;2.67;;;1.80;;
12110;SDS011;6119;52.372;8.990;2023-05-20T06:15:03;3.10;;;1.83;;
12110;SDS011;6119;52.372;8.990;2023-05-20T06:17:50;5.53;;;2.33;;
12110;SDS011;6119;52.372;8.990;2023-05-20T06:20:37;1.80;;;1.70;;
12110;SDS011;6119;52.372;8.990;2023-05-20T06:23:26;2.13;;;1.77;;
12110;SDS011;6119;52.372;8.990;2023-05-20T06:26:12;2.23;;;1.90;;
12110;SDS011;6119;52.372;8.990;2023-05-20T06:29:00;1.90;;;1.60;;
12110;SDS011;6119;52.372;8.990;2023-05-20T06:31:47;3.60;;;2.00;;
12110;SDS011;6119;52.372;8.990;2023-05-20T06:34:34;5.60;;;2.33;;
12110;SDS011;6119;52.372;8.990;2023-05-20T06:37:20;3.00;;;2.13;;
12110;SDS011;6119;52.372;8.990;2023-05-20T06:40:10;2.80;;;1.83;;
12110;SDS011;6119;52.372;8.990;2023-05-20T06:42:57;2.33;;;2.10;;
12110;SDS011;6119;52.372;8.990;2023-05-20T06:45:43;4.53;;;1.67;;
12110;SDS011;6119;52.372;8.990;2023-05-20T06:48:30;3.37;;;1.80;;
12110;SDS011;6119;52.372;8.990;2023-05-20T06:51:16;2.10;;;1.70;;
12110;SDS011;6119;52.372;8.990;2023-05-20T06:54:03;2.03;;;1.87;;
12110;SDS011;6119;52.372;8.990;2023-05-20T06:56:51;3.53;;;1.97;;
12110;SDS011;6119;52.372;8.990;2023-05-20T06:59:37;2.60;;;1.70;;
12110;SDS011;6119;52.372;8.990;2023-05-20T07:02:25;1.70;;;1.60;;
12110;SDS011;6119;52.372;8.990;2023-05-20T07:05:12;2.57;;;1.80;;
12110;SDS011;6119;52.372;8.990;2023-05-20T07:07:59;7.10;;;1.87;;
12110;SDS011;6119;52.372;8.990;2023-05-20T07:10:45;2.40;;;2.10;;
12110;SDS011;6119;52.372;8.990;2023-05-20T07:13:34;3.20;;;2.00;;
12110;SDS011;6119;52.372;8.990;2023-05-20T07:16:20;3.63;;;2.00;;
12110;SDS011;6119;52.372;8.990;2023-05-20T07:19:07;2.63;;;1.77;;
12110;SDS011;6119;52.372;8.990;2023-05-20T07:21:54;4.17;;;1.80;;
12110;SDS011;6119;52.372;8.990;2023-05-20T07:24:41;2.50;;;1.90;;
12110;SDS011;6119;52.372;8.990;2023-05-20T07:27:28;4.23;;;2.27;;
12110;SDS011;6119;52.372;8.990;2023-05-20T07:30:16;2.87;;;1.90;;
12110;SDS011;6119;52.372;8.990;2023-05-20T07:33:02;5.43;;;2.13;;
12110;SDS011;6119;52.372;8.990;2023-05-20T07:35:49;4.17;;;2.00;;
12110;SDS011;6119;52.372;8.990;2023-05-20T07:38:38;4.80;;;2.47;;
12110;SDS011;6119;52.372;8.990;2023-05-20T07:41:36;3.37;;;2.23;;
12110;SDS011;6119;52.372;8.990;2023-05-20T07:44:23;2.10;;;1.90;;
12110;SDS011;6119;52.372;8.990;2023-05-20T07:47:12;1.90;;;1.57;;
12110;SDS011;6119;52.372;8.990;2023-05-20T07:49:58;2.40;;;1.53;;
12110;SDS011;6119;52.372;8.990;2023-05-20T07:52:45;5.73;;;1.70;;
12110;SDS011;6119;52.372;8.990;2023-05-20T07:55:38;2.30;;;2.00;;
12110;SDS011;6119;52.372;8.990;2023-05-20T07:58:26;2.77;;;1.80;;
12110;SDS011;6119;52.372;8.990;2023-05-20T08:01:12;4.43;;;1.90;;
12110;SDS011;6119;52.372;8.990;2023-05-20T08:04:00;3.07;;;1.90;;
12110;SDS011;6119;52.372;8.990;2023-05-20T08:06:48;3.57;;;1.93;;
12110;SDS011;6119;52.372;8.990;2023-05-20T08:09:34;3.53;;;2.17;;
12110;SDS011;6119;52.372;8.990;2023-05-20T08:12:21;4.40;;;2.07;;
12110;SDS011;6119;52.372;8.990;2023-05-20T08:15:08;3.17;;;1.77;;
12110;SDS011;6119;52.372;8.990;2023-05-20T08:17:55;2.07;;;1.87;;
12110;SDS011;6119;52.372;8.990;2023-05-20T08:20:43;4.57;;;2.23;;
12110;SDS011;6119;52.372;8.990;2023-05-20T08:23:30;5.93;;;1.87;;
12110;SDS011;6119;52.372;8.990;2023-05-20T08:26:22;4.47;;;2.33;;
12110;SDS011;6119;52.372;8.990;2023-05-20T08:29:08;4.33;;;2.00;;
12110;SDS011;6119;52.372;8.990;2023-05-20T08:31:54;5.13;;;2.27;;
12110;SDS011;6119;52.372;8.990;2023-05-20T08:34:41;2.63;;;2.10;;
12110;SDS011;6119;52.372;8.990;2023-05-20T08:37:29;5.83;;;2.47;;
12110;SDS011;6119;52.372;8.990;2023-05-20T08:40:16;2.50;;;1.63;;
12110;SDS011;6119;52.372;8.990;2023-05-20T08:43:05;3.90;;;1.83;;
12110;SDS011;6119;52.372;8.990;2023-05-20T08:45:52;5.27;;;2.30;;
12110;SDS011;6119;52.372;8.990;2023-05-20T08:48:39;2.00;;;1.63;;
12110;SDS011;6119;52.372;8.990;2023-05-20T08:51:26;3.27;;;2.03;;
12110;SDS011;6119;52.372;8.990;2023-05-20T08:54:15;6.50;;;2.90;;
12110;SDS011;6119;52.372;8.990;2023-05-20T08:57:04;2.90;;;1.77;;
12110;SDS011;6119;52.372;8.990;2023-05-20T08:59:50;2.97;;;1.73;;
12110;SDS011;6119;52.372;8.990;2023-05-20T09:02:37;2.37;;;1.60;;
12110;SDS011;6119;52.372;8.990;2023-05-20T09:05:25;2.10;;;1.80;;
12110;SDS011;6119;52.372;8.990;2023-05-20T09:08:11;4.43;;;1.43;;
12110;SDS011;6119;52.372;8.990;2023-05-20T09:10:59;1.97;;;1.40;;
12110;SDS011;6119;52.372;8.990;2023-05-20T09:13:46;3.63;;;1.70;;
12110;SDS011;6119;52.372;8.990;2023-05-20T09:16:34;4.37;;;2.20;;
12110;SDS011;6119;52.372;8.990;2023-05-20T09:19:21;5.67;;;2.00;;
12110;SDS011;6119;52.372;8.990;2023-05-20T09:22:08;2.90;;;1.77;;
12110;SDS011;6119;52.372;8.990;2023-05-20T09:24:55;4.93;;;1.87;;
12110;SDS011;6119;52.372;8.990;2023-05-20T09:27:43;2.67;;;1.70;;
12110;SDS011;6119;52.372;8.990;2023-05-20T09:30:30;2.67;;;2.00;;
12110;SDS011;6119;52.372;8.990;2023-05-20T09:33:18;2.93;;;1.87;;
12110;SDS011;6119;52.372;8.990;2023-05-20T09:36:06;3.30;;;2.10;;
12110;SDS011;6119;52.372;8.990;2023-05-20T09:38:53;2.90;;;2.00;;
12110;SDS011;6119;52.372;8.990;2023-05-20T09:41:48;3.23;;;2.30;;
12110;SDS011;6119;52.372;8.990;2023-05-20T09:44:42;6.00;;;2.07;;
12110;SDS011;6119;52.372;8.990;2023-05-20T09:47:30;5.77;;;2.40;;
12110;SDS011;6119;52.372;8.990;2023-05-20T09:50:18;7.03;;;2.47;;
12110;SDS011;6119;52.372;8.990;2023-05-20T09:53:06;2.30;;;2.00;;
12110;SDS011;6119;52.372;8.990;2023-05-20T09:55:54;2.60;;;1.87;;
12110;SDS011;6119;52.372;8.990;2023-05-20T09:58:41;2.03;;;1.83;;
12110;SDS011;6119;52.372;8.990;2023-05-20T10:01:31;2.40;;;2.10;;
12110;SDS011;6119;52.372;8.990;2023-05-20T10:04:18;2.47;;;2.13;;
12110;SDS011;6119;52.372;8.990;2023-05-20T10:10:30;2.20;;;1.73;;
12110;SDS011;6119;52.372;8.990;2023-05-20T10:13:29;3.30;;;2.10;;
12110;SDS011;6119;52.372;8.990;2023-05-20T10:16:30;1.80;;;1.70;;
12110;SDS011;6119;52.372;8.990;2023-05-20T10:19:26;1.50;;;1.40;;
12110;SDS011;6119;52.372;8.990;2023-05-20T10:22:24;2.50;;;1.90;;
12110;SDS011;6119;52.372;8.990;2023-05-20T10:25:22;3.47;;;1.73;;
12110;SDS011;6119;52.372;8.990;2023-05-20T10:28:10;1.57;;;1.47;;
12110;SDS011;6119;52.372;8.990;2023-05-20T10:30:57;2.67;;;1.80;;
12110;SDS011;6119;52.372;8.990;2023-05-20T10:33:46;2.50;;;2.00;;
12110;SDS011;6119;52.372;8.990;2023-05-20T10:36:33;2.80;;;1.73;;
12110;SDS011;6119;52.372;8.990;2023-05-20T10:39:24;1.90;;;1.80;;
12110;SDS011;6119;52.372;8.990;2023-05-20T10:42:12;4.33;;;1.97;;
12110;SDS011;6119;52.372;8.990;2023-05-20T10:44:58;1.90;;;1.80;;
12110;SDS011;6119;52.372;8.990;2023-05-20T10:47:52;2.37;;;1.80;;
12110;SDS011;6119;52.372;8.990;2023-05-20T10:50:41;3.33;;;2.30;;
12110;SDS011;6119;52.372;8.990;2023-05-20T10:53:38;2.60;;;1.87;;
12110;SDS011;6119;52.372;8.990;2023-05-20T10:56:25;2.53;;;2.33;;
12110;SDS011;6119;52.372;8.990;2023-05-20T10:59:12;4.80;;;2.00;;
12110;SDS011;6119;52.372;8.990;2023-05-20T11:01:59;2.40;;;1.80;;
12110;SDS011;6119;52.372;8.990;2023-05-20T11:04:46;3.13;;;1.93;;
12110;SDS011;6119;52.372;8.990;2023-05-20T11:07:34;3.23;;;2.30;;
12110;SDS011;6119;52.372;8.990;2023-05-20T11:10:22;2.30;;;2.10;;
12110;SDS011;6119;52.372;8.990;2023-05-20T11:13:10;2.73;;;2.07;;
12110;SDS011;6119;52.372;8.990;2023-05-20T11:15:58;3.47;;;2.30;;
12110;SDS011;6119;52.372;8.990;2023-05-20T11:18:47;3.93;;;2.10;;
12110;SDS011;6119;52.372;8.990;2023-05-20T11:21:34;3.87;;;2.10;;
12110;SDS011;6119;52.372;8.990;2023-05-20T11:24:29;4.53;;;2.30;;
12110;SDS011;6119;52.372;8.990;2023-05-20T11:27:16;2.80;;;2.43;;
12110;SDS011;6119;52.372;8.990;2023-05-20T11:30:03;2.00;;;1.80;;
12110;SDS011;6119;52.372;8.990;2023-05-20T11:32:57;2.53;;;1.90;;
12110;SDS011;6119;52.372;8.990;2023-05-20T11:35:45;1.80;;;1.70;;
12110;SDS011;6119;52.372;8.990;2023-05-20T11:38:33;3.63;;;2.33;;
12110;SDS011;6119;52.372;8.990;2023-05-20T11:41:23;2.20;;;1.90;;
12110;SDS011;6119;52.372;8.990;2023-05-20T11:44:12;2.83;;;2.37;;
12110;SDS011;6119;52.372;8.990;2023-05-20T11:46:58;3.37;;;1.90;;
12110;SDS011;6119;52.372;8.990;2023-05-20T11:49:47;3.07;;;2.27;;
12110;SDS011;6119;52.372;8.990;2023-05-20T11:52:34;6.20;;;2.43;;
12110;SDS011;6119;52.372;8.990;2023-05-20T11:55:20;2.63;;;1.80;;
12110;SDS011;6119;52.372;8.990;2023-05-20T11:58:08;3.27;;;2.23;;
12110;SDS011;6119;52.372;8.990;2023-05-20T12:00:55;3.23;;;2.10;;
12110;SDS011;6119;52.372;8.990;2023-05-20T12:03:57;2.10;;;1.90;;
12110;SDS011;6119;52.372;8.990;2023-05-20T12:06:44;2.43;;;1.93;;
12110;SDS011;6119;52.372;8.990;2023-05-20T12:09:31;4.23;;;2.20;;
12110;SDS011;6119;52.372;8.990;2023-05-20T12:12:17;2.83;;;2.20;;
12110;SDS011;6119;52.372;8.990;2023-05-20T12:15:06;3.27;;;2.00;;
12110;SDS011;6119;52.372;8.990;2023-05-20T12:17:53;2.23;;;2.00;;
12110;SDS011;6119;52.372;8.990;2023-05-20T12:20:41;2.80;;;2.20;;
12110;SDS011;6119;52.372;8.990;2023-05-20T12:23:27;2.83;;;2.10;;
12110;SDS011;6119;52.372;8.990;2023-05-20T12:26:17;2.37;;;2.13;;
12110;SDS011;6119;52.372;8.990;2023-05-20T12:29:05;5.70;;;2.50;;
12110;SDS011;6119;52.372;8.990;2023-05-20T12:31:53;2.83;;;2.30;;
12110;SDS011;6119;52.372;8.990;2023-05-20T12:34:39;2.20;;;2.00;;
12110;SDS011;6119;52.372;8.990;2023-05-20T12:37:26;3.90;;;2.00;;
12110;SDS011;6119;52.372;8.990;2023-05-20T12:40:13;3.97;;;2.20;;
12110;SDS011;6119;52.372;8.990;2023-05-20T12:42:59;3.30;;;2.00;;
12110;SDS011;6119;52.372;8.990;2023-05-20T12:45:47;2.33;;;1.93;;
12110;SDS011;6119;52.372;8.990;2023-05-20T12:48:35;1.90;;;1.80;;
12110;SDS011;6119;52.372;8.990;2023-05-20T12:51:22;1.97;;;1.77;;
12110;SDS011;6119;52.372;8.990;2023-05-20T12:54:09;2.50;;;1.63;;
12110;SDS011;6119;52.372;8.990;2023-05-20T12:56:55;3.80;;;2.17;;
12110;SDS011;6119;52.372;8.990;2023-05-20T12:59:42;2.57;;;2.20;;
12110;SDS011;6119;52.372;8.990;2023-05-20T13:02:28;2.80;;;1.97;;
12110;SDS011;6119;52.372;8.990;2023-05-20T13:05:17;2.30;;;1.70;;
12110;SDS011;6119;52.372;8.990;2023-05-20T13:08:04;2.10;;;1.90;;
12110;SDS011;6119;52.372;8.990;2023-05-20T13:10:52;2.37;;;2.17;;
12110;SDS011;6119;52.372;8.990;2023-05-20T13:13:39;2.83;;;2.10;;
12110;SDS011;6119;52.372;8.990;2023-05-20T13:16:26;4.37;;;2.13;;
12110;SDS011;6119;52.372;8.990;2023-05-20T13:19:13;2.70;;;1.70;;
12110;SDS011;6119;52.372;8.990;2023-05-20T13:22:01;2.97;;;2.30;;
12110;SDS011;6119;52.372;8.990;2023-05-20T13:24:48;2.80;;;2.60;;
12110;SDS011;6119;52.372;8.990;2023-05-20T13:27:35;1.87;;;1.73;;
12110;SDS011;6119;52.372;8.990;2023-05-20T13:30:21;3.90;;;2.17;;
12110;SDS011;6119;52.372;8.990;2023-05-20T13:33:08;2.17;;;1.93;;
12110;SDS011;6119;52.372;8.990;2023-05-20T13:35:54;2.50;;;1.63;;
12110;SDS011;6119;52.372;8.990;2023-05-20T13:38:42;2.63;;;1.83;;
12110;SDS011;6119;52.372;8.990;2023-05-20T13:41:29;2.40;;;2.00;;
12110;SDS011;6119;52.372;8.990;2023-05-20T13:44:15;2.33;;;2.13;;
12110;SDS011;6119;52.372;8.990;2023-05-20T13:47:02;2.43;;;2.20;;
12110;SDS011;6119;52.372;8.990;2023-05-20T13:49:49;4.13;;;2.43;;
12110;SDS011;6119;52.372;8.990;2023-05-20T13:52:35;4.63;;;3.10;;
12110;SDS011;6119;52.372;8.990;2023-05-20T13:55:23;2.60;;;2.17;;
12110;SDS011;6119;52.372;8.990;2023-05-20T13:58:10;3.43;;;2.40;;
12110;SDS011;6119;52.372;8.990;2023-05-20T14:00:57;3.40;;;2.27;;
12110;SDS011;6119;52.372;8.990;2023-05-20T14:03:44;2.57;;;2.33;;
12110;SDS011;6119;52.372;8.990;2023-05-20T14:06:31;2.20;;;1.97;;
12110;SDS011;6119;52.372;8.990;2023-05-20T14:09:17;2.80;;;2.00;;
12110;SDS011;6119;52.372;8.990;2023-05-20T14:12:05;2.53;;;2.27;;
12110;SDS011;6119;52.372;8.990;2023-05-20T14:14:53;2.43;;;2.00;;
12110;SDS011;6119;52.372;8.990;2023-05-20T14:17:40;3.50;;;2.30;;
12110;SDS011;6119;52.372;8.990;2023-05-20T14:20:27;2.97;;;2.37;;
12110;SDS011;6119;52.372;8.990;2023-05-20T14:23:13;2.70;;;2.17;;
12110;SDS011;6119;52.372;8.990;2023-05-20T14:26:00;4.07;;;2.17;;
12110;SDS011;6119;52.372;8.990;2023-05-20T14:28:48;3.83;;;2.60;;
12110;SDS011;6119;52.372;8.990;2023-05-20T14:31:35;2.87;;;2.57;;
12110;SDS011;6119;52.372;8.990;2023-05-20T14:34:23;3.50;;;2.57;;
12110;SDS011;6119;52.372;8.990;2023-05-20T14:37:10;2.87;;;2.63;;
12110;SDS011;6119;52.372;8.990;2023-05-20T14:39:57;3.70;;;2.77;;
12110;SDS011;6119;52.372;8.990;2023-05-20T14:42:43;4.37;;;2.70;;
12110;SDS011;6119;52.372;8.990;2023-05-20T14:45:31;4.13;;;3.20;;
12110;SDS011;6119;52.372;8.990;2023-05-20T14:48:18;3.87;;;2.83;;
12110;SDS011;6119;52.372;8.990;2023-05-20T14:51:05;4.80;;;2.63;;
12110;SDS011;6119;52.372;8.990;2023-05-20T14:53:52;3.57;;;2.83;;
12110;SDS011;6119;52.372;8.990;2023-05-20T14:56:38;2.63;;;2.40;;
12110;SDS011;6119;52.372;8.990;2023-05-20T14:59:25;5.13;;;2.70;;
12110;SDS011;6119;52.372;8.990;2023-05-20T15:02:13;4.47;;;3.30;;
12110;SDS011;6119;52.372;8.990;2023-05-20T15:05:00;3.70;;;2.77;;
12110;SDS011;6119;52.372;8.990;2023-05-20T15:07:47;3.83;;;2.93;;
12110;SDS011;6119;52.372;8.990;2023-05-20T15:10:33;4.10;;;3.07;;
12110;SDS011;6119;52.372;8.990;2023-05-20T15:13:20;4.93;;;3.07;;
12110;SDS011;6119;52.372;8.990;2023-05-20T15:16:07;3.40;;;2.83;;
12110;SDS011;6119;52.372;8.990;2023-05-20T15:18:54;3.40;;;3.10;;
12110;SDS011;6119;52.372;8.990;2023-05-20T15:21:41;2.93;;;2.63;;
12110;SDS011;6119;52.372;8.990;2023-05-20T15:24:28;4.33;;;2.70;;
12110;SDS011;6119;52.372;8.990;2023-05-20T15:27:14;5.40;;;2.70;;
12110;SDS011;6119;52.372;8.990;2023-05-20T15:30:01;2.87;;;2.60;;
12110;SDS011;6119;52.372;8.990;2023-05-20T15:32:48;3.40;;;3.10;;
12110;SDS011;6119;52.372;8.990;2023-05-20T15:35:36;3.60;;;3.13;;
12110;SDS011;6119;52.372;8.990;2023-05-20T15:38:23;3.93;;;2.80;;
12110;SDS011;6119;52.372;8.990;2023-05-20T15:41:09;3.80;;;3.00;;
12110;SDS011;6119;52.372;8.990;2023-05-20T15:43:57;3.47;;;2.90;;
12110;SDS011;6119;52.372;8.990;2023-05-20T15:46:44;4.63;;;2.83;;
12110;SDS011;6119;52.372;8.990;2023-05-20T15:49:31;3.83;;;2.60;;
12110;SDS011;6119;52.372;8.990;2023-05-20T15:52:19;3.27;;;2.90;;
12110;SDS011;6119;52.372;8.990;2023-05-20T15:55:07;3.37;;;2.80;;
12110;SDS011;6119;52.372;8.990;2023-05-20T15:57:54;3.67;;;2.77;;
12110;SDS011;6119;52.372;8.990;2023-05-20T16:00:41;3.97;;;3.17;;
12110;SDS011;6119;52.372;8.990;2023-05-20T16:03:27;3.43;;;2.83;;
12110;SDS011;6119;52.372;8.990;2023-05-20T16:06:15;5.57;;;3.30;;
12110;SDS011;6119;52.372;8.990;2023-05-20T16:09:03;5.07;;;3.10;;
12110;SDS011;6119;52.372;8.990;2023-05-20T16:11:50;3.83;;;3.20;;
12110;SDS011;6119;52.372;8.990;2023-05-20T16:14:37;3.97;;;3.50;;
12110;SDS011;6119;52.372;8.990;2023-05-20T16:17:23;3.70;;;2.90;;
12110;SDS011;6119;52.372;8.990;2023-05-20T16:20:10;3.83;;;3.20;;
12110;SDS011;6119;52.372;8.990;2023-05-20T16:22:57;4.20;;;3.23;;
12110;SDS011;6119;52.372;8.990;2023-05-20T16:25:45;3.77;;;3.00;;
12110;SDS011;6119;52.372;8.990;2023-05-20T16:28:32;6.37;;;3.60;;
12110;SDS011;6119;52.372;8.990;2023-05-20T16:31:18;3.20;;;2.90;;
12110;SDS011;6119;52.372;8.990;2023-05-20T16:34:06;4.70;;;3.07;;
12110;SDS011;6119;52.372;8.990;2023-05-20T16:36:52;5.40;;;3.47;;
12110;SDS011;6119;52.372;8.990;2023-05-20T16:39:39;3.23;;;2.90;;
12110;SDS011;6119;52.372;8.990;2023-05-20T16:42:27;4.80;;;3.07;;
12110;SDS011;6119;52.372;8.990;2023-05-20T16:45:14;3.77;;;3.20;;
12110;SDS011;6119;52.372;8.990;2023-05-20T16:48:00;5.93;;;3.57;;
12110;SDS011;6119;52.372;8.990;2023-05-20T16:50:47;5.60;;;3.60;;
12110;SDS011;6119;52.372;8.990;2023-05-20T16:53:33;4.37;;;3.33;;
12110;SDS011;6119;52.372;8.990;2023-05-20T16:56:20;4.60;;;3.30;;
12110;SDS011;6119;52.372;8.990;2023-05-20T16:59:08;5.10;;;3.43;;
12110;SDS011;6119;52.372;8.990;2023-05-20T17:01:58;4.03;;;3.20;;
12110;SDS011;6119;52.372;8.990;2023-05-20T17:04:45;4.53;;;3.40;;
12110;SDS011;6119;52.372;8.990;2023-05-20T17:07:32;4.33;;;3.43;;